Time;durP1;ratioP1;P1;durP2;ratioP2;P2;SDS_P1;SDS_P2;PMS_P1;PMS_P2;Temp;Humidity;BMP_temperature;BMP_pressure;BME280_temperature;BME280_humidity;BME280_pressure;Samples;Min_cycle;Max_cycle;Signal;HPM_P1;HPM_P2
2024/01/04 00:01:49;;;;;;;4.07;1.10;;;7.70;99.90;;;;;;5032003;28;20112;-54
2024/01/04 00:04:15;;;;;;;2.57;1.17;;;7.70;99.90;;;;;;5031994;28;20134;-53
2024/01/04 00:06:42;;;;;;;7.27;1.50;;;7.80;99.90;;;;;;5031985;28;20029;-54
2024/01/04 00:09:08;;;;;;;5.90;1.57;;;7.80;99.90;;;;;;5031698;28;20091;-54
2024/01/04 00:11:34;;;;;;;5.83;1.63;;;7.80;99.90;;;;;;5031743;28;20029;-55
2024/01/04 00:14:02;;;;;;;4.33;1.60;;;7.80;99.90;;;;;;5031756;28;20038;-53
2024/01/04 00:16:27;;;;;;;4.10;1.67;;;7.80;99.90;;;;;;5031889;28;20037;-55
2024/01/04 00:18:53;;;;;;;9.23;2.10;;;7.90;99.90;;;;;;5031539;28;20042;-54
2024/01/04 00:21:18;;;;;;;5.40;1.77;;;7.90;99.90;;;;;;5031721;28;20021;-53
2024/01/04 00:23:44;;;;;;;2.83;1.50;;;7.90;99.90;;;;;;5031728;28;20107;-54
2024/01/04 00:26:10;;;;;;;5.63;1.67;;;7.90;99.90;;;;;;5031664;28;20029;-54
2024/01/04 00:28:36;;;;;;;4.47;2.00;;;7.90;99.90;;;;;;5013667;28;20036;-52
2024/01/04 00:31:02;;;;;;;5.37;2.13;;;7.90;99.90;;;;;;5031646;28;20496;-53
2024/01/04 00:33:27;;;;;;;4.87;2.43;;;8.00;99.90;;;;;;5031852;28;20056;-54
2024/01/04 00:35:53;;;;;;;7.17;2.03;;;8.00;99.90;;;;;;5031668;28;20025;-52
2024/01/04 00:38:19;;;;;;;4.47;1.80;;;8.00;99.90;;;;;;5013628;28;20041;-52
2024/01/04 00:40:44;;;;;;;5.23;2.33;;;8.00;99.90;;;;;;5013778;28;20100;-52
2024/01/04 00:43:10;;;;;;;9.97;2.40;;;8.00;99.90;;;;;;5031459;28;20488;-53
2024/01/04 00:45:35;;;;;;;4.33;2.43;;;8.10;99.90;;;;;;5013868;28;20084;-55
2024/01/04 00:48:02;;;;;;;10.10;2.40;;;8.20;99.90;;;;;;5013784;28;20064;-54
2024/01/04 00:50:27;;;;;;;5.17;2.53;;;8.20;99.90;;;;;;5031240;28;20060;-50
2024/01/04 00:52:53;;;;;;;4.57;2.10;;;8.20;99.90;;;;;;5013619;28;20026;-49
2024/01/04 00:55:18;;;;;;;6.40;2.60;;;8.10;99.90;;;;;;5031389;28;20379;-52
2024/01/04 00:57:44;;;;;;;5.60;2.43;;;8.10;99.90;;;;;;5031236;28;20026;-51
2024/01/04 01:00:10;;;;;;;6.33;2.40;;;8.10;99.90;;;;;;5014709;28;20313;-52
2024/01/04 01:02:36;;;;;;;4.47;2.50;;;8.00;99.90;;;;;;5017369;28;20029;-51
2024/01/04 01:05:01;;;;;;;6.50;2.90;;;8.10;99.90;;;;;;5017477;28;20040;-52
2024/01/04 01:07:28;;;;;;;4.17;1.90;;;8.00;99.90;;;;;;5017470;28;20054;-53
2024/01/04 01:09:53;;;;;;;3.40;1.60;;;8.00;99.90;;;;;;5017024;28;20038;-51
2024/01/04 01:12:19;;;;;;;6.10;1.70;;;7.90;99.90;;;;;;5017081;28;20030;-50
2024/01/04 01:14:45;;;;;;;3.30;1.67;;;7.80;99.90;;;;;;5017340;28;20037;-50
2024/01/04 01:17:10;;;;;;;2.87;1.50;;;7.80;99.90;;;;;;5017207;28;20052;-51
2024/01/04 01:19:37;;;;;;;3.87;2.03;;;7.80;99.90;;;;;;5016956;28;20044;-53
2024/01/04 01:22:03;;;;;;;4.73;1.70;;;7.80;99.90;;;;;;5034869;28;20450;-50
2024/01/04 01:24:28;;;;;;;4.67;1.80;;;7.80;99.90;;;;;;5017013;28;20117;-51
2024/01/04 01:26:54;;;;;;;4.13;1.70;;;7.80;99.90;;;;;;5034778;28;20540;-52
2024/01/04 01:29:19;;;;;;;4.20;1.83;;;7.80;99.90;;;;;;5016808;28;20040;-49
2024/01/04 01:31:45;;;;;;;5.50;1.57;;;7.80;99.90;;;;;;5016855;28;20478;-54
2024/01/04 01:34:11;;;;;;;4.73;1.50;;;7.80;99.90;;;;;;5016899;28;20029;-52
2024/01/04 01:36:40;;;;;;;6.40;2.30;;;7.80;99.90;;;;;;5016843;28;20040;-53
2024/01/04 01:39:06;;;;;;;5.20;1.90;;;7.70;99.90;;;;;;5016525;28;20026;-55
2024/01/04 01:41:32;;;;;;;7.03;1.90;;;7.70;99.90;;;;;;5016620;28;20454;-50
2024/01/04 01:43:57;;;;;;;6.50;1.90;;;7.80;99.90;;;;;;5016749;28;20034;-50
2024/01/04 01:46:24;;;;;;;3.97;1.80;;;7.80;99.90;;;;;;5016667;28;20033;-50
2024/01/04 01:48:50;;;;;;;3.63;1.43;;;7.90;99.90;;;;;;5016364;28;20053;-53
2024/01/04 01:51:16;;;;;;;2.97;1.47;;;7.80;99.90;;;;;;5032962;28;20474;-51
2024/01/04 01:53:42;;;;;;;2.83;1.50;;;7.80;99.90;;;;;;5016514;28;20056;-54
2024/01/04 01:56:07;;;;;;;3.30;1.33;;;7.70;99.90;;;;;;5034236;28;20053;-54
2024/01/04 01:58:35;;;;;;;5.43;1.60;;;7.80;99.90;;;;;;5016278;28;20026;-55
2024/01/04 02:01:01;;;;;;;3.17;1.40;;;7.80;99.90;;;;;;5016369;28;20032;-55
2024/01/04 02:03:26;;;;;;;2.73;1.20;;;7.70;99.90;;;;;;5016311;28;20394;-55
2024/01/04 02:05:52;;;;;;;1.80;1.10;;;7.80;99.90;;;;;;5016341;28;20414;-54
2024/01/04 02:08:17;;;;;;;2.40;1.13;;;7.90;99.90;;;;;;5034036;28;20071;-54
2024/01/04 02:10:43;;;;;;;4.63;1.20;;;7.80;99.90;;;;;;5015688;28;20033;-56
2024/01/04 02:13:10;;;;;;;2.67;1.00;;;7.80;99.90;;;;;;5033905;28;20030;-52
2024/01/04 02:15:36;;;;;;;3.63;1.13;;;7.70;99.90;;;;;;5016162;28;20113;-53
2024/01/04 02:18:01;;;;;;;2.97;1.10;;;7.70;99.90;;;;;;5015937;28;20116;-54
2024/01/04 02:20:27;;;;;;;2.03;0.93;;;7.70;99.90;;;;;;5015834;28;20033;-55
2024/01/04 02:22:52;;;;;;;5.43;1.37;;;7.80;99.90;;;;;;5033606;28;20030;-55
2024/01/04 02:25:18;;;;;;;4.73;1.37;;;7.80;99.90;;;;;;5015924;28;20397;-55
2024/01/04 02:27:44;;;;;;;2.10;1.03;;;7.70;99.90;;;;;;5015823;28;20402;-54
2024/01/04 02:30:13;;;;;;;4.73;1.33;;;7.70;99.90;;;;;;5015751;28;20034;-50
2024/01/04 02:32:38;;;;;;;5.07;1.17;;;7.70;99.90;;;;;;5033555;28;20379;-51
2024/01/04 02:35:05;;;;;;;2.37;1.10;;;7.70;99.90;;;;;;5015828;28;20032;-51
2024/01/04 02:37:31;;;;;;;4.40;1.40;;;7.70;99.90;;;;;;5033622;28;20036;-52
2024/01/04 02:39:57;;;;;;;3.03;1.20;;;7.70;99.90;;;;;;5015484;28;20474;-54
2024/01/04 02:42:22;;;;;;;3.40;1.20;;;7.70;99.90;;;;;;5033381;28;20037;-51
2024/01/04 02:44:48;;;;;;;4.47;1.47;;;7.70;99.90;;;;;;5015578;28;20029;-53
2024/01/04 02:47:15;;;;;;;3.73;1.60;;;7.70;99.90;;;;;;5015789;28;20056;-52
2024/01/04 02:49:42;;;;;;;5.30;1.63;;;7.70;99.90;;;;;;5015467;28;20461;-50
2024/01/04 02:52:07;;;;;;;6.33;1.90;;;7.70;99.90;;;;;;5032958;28;20116;-51
2024/01/04 02:54:33;;;;;;;3.10;1.73;;;7.70;99.90;;;;;;5015271;28;20117;-54
2024/01/04 02:56:59;;;;;;;4.67;2.00;;;7.70;99.90;;;;;;5033327;28;20025;-52
2024/01/04 02:59:24;;;;;;;3.53;1.60;;;7.70;99.90;;;;;;5015084;28;20037;-52
2024/01/04 03:01:50;;;;;;;3.47;1.27;;;7.60;99.90;;;;;;5032946;28;20360;-50
2024/01/04 03:04:16;;;;;;;3.87;1.40;;;7.60;99.90;;;;;;5033051;28;20033;-50
2024/01/04 03:06:42;;;;;;;3.90;1.50;;;7.60;99.90;;;;;;5032895;28;20026;-54
2024/01/04 03:09:08;;;;;;;5.37;1.30;;;7.60;99.90;;;;;;5032696;28;20045;-51
2024/01/04 03:11:33;;;;;;;3.90;1.30;;;7.50;99.90;;;;;;5032736;28;20505;-50
2024/01/04 03:13:59;;;;;;;6.17;1.57;;;7.60;99.90;;;;;;5032678;28;20057;-53
2024/01/04 03:16:24;;;;;;;1.90;0.97;;;7.50;99.90;;;;;;5032767;28;20474;-51
2024/01/04 03:18:50;;;;;;;3.73;1.00;;;7.50;99.90;;;;;;5032340;28;20071;-54
2024/01/04 03:21:17;;;;;;;3.30;1.10;;;7.50;99.90;;;;;;5032518;28;20017;-53
2024/01/04 03:23:43;;;;;;;1.40;0.70;;;7.50;99.90;;;;;;5031811;28;20037;-51
2024/01/04 03:26:08;;;;;;;1.83;0.80;;;7.50;99.90;;;;;;5032512;28;20040;-53
2024/01/04 03:28:34;;;;;;;4.47;0.97;;;7.50;99.90;;;;;;5032278;28;20092;-51
2024/01/04 03:30:59;;;;;;;1.87;0.87;;;7.40;99.90;;;;;;5032393;28;20021;-50
2024/01/04 03:33:25;;;;;;;4.30;0.70;;;7.40;99.90;;;;;;5032361;28;20115;-50
2024/01/04 03:35:51;;;;;;;3.47;0.80;;;7.40;99.90;;;;;;5032305;28;20029;-52
2024/01/04 03:38:16;;;;;;;5.47;1.00;;;7.50;99.90;;;;;;5032095;28;20033;-51
2024/01/04 03:40:42;;;;;;;2.20;0.80;;;7.40;99.90;;;;;;5032489;28;20040;-53
2024/01/04 03:43:08;;;;;;;2.13;0.90;;;7.40;99.90;;;;;;5032232;28;20032;-53
2024/01/04 03:45:33;;;;;;;2.37;0.90;;;7.30;99.90;;;;;;5032210;28;20482;-51
2024/01/04 03:47:59;;;;;;;6.53;1.00;;;7.30;99.90;;;;;;5032103;28;20112;-55
2024/01/04 03:50:25;;;;;;;2.90;1.00;;;7.30;99.90;;;;;;5031865;28;20104;-51
2024/01/04 03:52:51;;;;;;;5.33;1.00;;;7.30;99.90;;;;;;5031950;28;20464;-50
2024/01/04 03:55:16;;;;;;;2.83;0.80;;;7.40;99.90;;;;;;5032152;28;20103;-54
2024/01/04 03:57:45;;;;;;;4.00;0.83;;;7.30;99.90;;;;;;5031952;28;20033;-52
2024/01/04 04:00:12;;;;;;;1.77;0.70;;;7.30;99.90;;;;;;5031919;28;20064;-53
2024/01/04 04:02:38;;;;;;;2.20;0.70;;;7.20;99.90;;;;;;5031874;28;20026;-53
2024/01/04 04:05:04;;;;;;;2.37;0.70;;;7.10;99.90;;;;;;5031944;28;20091;-54
2024/01/04 04:07:30;;;;;;;0.50;0.40;;;7.10;99.90;;;;;;5031961;28;20382;-54
2024/01/04 04:09:56;;;;;;;1.53;0.60;;;7.10;99.90;;;;;;5031733;28;20026;-53
2024/01/04 04:12:22;;;;;;;1.00;0.63;;;7.10;99.90;;;;;;5031774;28;20049;-49
2024/01/04 04:14:48;;;;;;;3.70;0.90;;;7.00;99.90;;;;;;5031944;28;20034;-52
2024/01/04 04:17:17;;;;;;;2.93;0.60;;;7.00;99.90;;;;;;5031833;28;20068;-54
2024/01/04 04:19:43;;;;;;;;;;;7.00;99.90;;;;;;5031971;28;20029;-51
2024/01/04 04:22:08;;;;;;;2.93;0.70;;;7.00;99.90;;;;;;5031678;28;20358;-51
2024/01/04 04:24:34;;;;;;;2.50;1.20;;;6.90;99.90;;;;;;5031745;28;20053;-53
2024/01/04 04:27:00;;;;;;;2.13;1.07;;;7.00;99.90;;;;;;5031819;28;20128;-55
2024/01/04 04:29:25;;;;;;;3.87;1.43;;;7.10;99.90;;;;;;5031452;28;20030;-54
2024/01/04 04:31:51;;;;;;;3.77;1.53;;;7.10;99.90;;;;;;5031505;28;20450;-54
2024/01/04 04:34:16;;;;;;;4.80;1.63;;;7.10;99.90;;;;;;5015212;28;20063;-53
2024/01/04 04:36:42;;;;;;;3.80;1.70;;;7.10;99.90;;;;;;5035691;28;20029;-51
2024/01/04 04:39:08;;;;;;;7.23;2.00;;;7.10;99.90;;;;;;5035643;28;20050;-55
2024/01/04 04:41:34;;;;;;;5.20;2.00;;;7.10;99.90;;;;;;5035490;28;20037;-51
2024/01/04 04:44:00;;;;;;;9.63;2.30;;;7.20;99.90;;;;;;5035573;28;20029;-50
2024/01/04 04:46:26;;;;;;;5.40;2.00;;;7.20;99.90;;;;;;5035592;28;20392;-50
2024/01/04 04:48:55;;;;;;;9.77;2.03;;;7.30;99.90;;;;;;5035152;28;20156;-52
2024/01/04 04:51:22;;;;;;;7.22;2.38;;;7.40;99.90;;;;;;5035278;28;20033;-54
2024/01/04 04:53:48;;;;;;;6.53;2.40;;;7.40;99.90;;;;;;5035331;28;20033;-55
2024/01/04 04:56:14;;;;;;;8.67;2.20;;;7.50;99.90;;;;;;5035379;28;20033;-51
2024/01/04 04:58:39;;;;;;;5.80;1.90;;;7.60;99.90;;;;;;5035074;28;20053;-54
2024/01/04 05:01:05;;;;;;;7.60;1.63;;;7.60;99.90;;;;;;5017633;28;20045;-54
2024/01/04 05:03:32;;;;;;;5.93;1.90;;;7.70;99.90;;;;;;5035169;28;20045;-55
2024/01/04 05:05:57;;;;;;;3.73;1.53;;;7.80;99.90;;;;;;5035169;28;20029;-53
2024/01/04 05:08:23;;;;;;;8.17;2.33;;;7.80;99.90;;;;;;5034969;28;20406;-55
2024/01/04 05:10:48;;;;;;;5.13;1.70;;;7.80;99.90;;;;;;5034937;28;20029;-53
2024/01/04 05:13:14;;;;;;;5.37;1.70;;;7.80;99.90;;;;;;5034829;28;20030;-54
2024/01/04 05:15:40;;;;;;;3.07;1.60;;;7.90;99.90;;;;;;5035006;28;20439;-55
2024/01/04 05:18:08;;;;;;;5.03;1.90;;;7.90;99.90;;;;;;5034705;28;20148;-55
2024/01/04 05:20:34;;;;;;;7.25;2.10;;;7.90;99.90;;;;;;5034690;28;20029;-55
2024/01/04 05:22:59;;;;;;;4.27;1.90;;;7.90;99.90;;;;;;5034830;28;20035;-55
2024/01/04 05:25:25;;;;;;;6.53;1.73;;;7.90;99.90;;;;;;5034808;28;20080;-50
2024/01/04 05:27:51;;;;;;;5.00;1.47;;;7.80;99.90;;;;;;5034754;28;20039;-53
2024/01/04 05:30:17;;;;;;;6.43;1.97;;;7.90;99.90;;;;;;5034503;28;20557;-54
2024/01/04 05:32:43;;;;;;;6.87;2.37;;;7.80;99.90;;;;;;5034526;28;20025;-55
2024/01/04 05:35:11;;;;;;;5.47;2.00;;;7.80;99.90;;;;;;5034635;28;20056;-54
2024/01/04 05:37:37;;;;;;;4.67;2.13;;;7.80;99.90;;;;;;5034638;28;20060;-55
2024/01/04 05:40:03;;;;;;;6.53;2.50;;;7.70;99.90;;;;;;5034345;28;20069;-51
2024/01/04 05:42:29;;;;;;;5.60;2.17;;;7.70;99.90;;;;;;5034413;28;20026;-55
2024/01/04 05:44:55;;;;;;;2.40;1.33;;;7.60;99.90;;;;;;5034526;28;20025;-51
2024/01/04 05:47:20;;;;;;;1.97;1.13;;;7.60;99.90;;;;;;5033588;28;20108;-52
2024/01/04 05:49:46;;;;;;;3.30;1.20;;;7.50;99.90;;;;;;5034095;28;20055;-54
2024/01/04 05:52:12;;;;;;;2.87;1.20;;;7.40;99.90;;;;;;5034349;28;20026;-54
2024/01/04 05:54:38;;;;;;;4.33;1.23;;;7.50;99.90;;;;;;5034233;28;20068;-55
2024/01/04 05:57:04;;;;;;;2.53;0.90;;;7.40;99.90;;;;;;5034397;28;20477;-53
2024/01/04 05:59:29;;;;;;;4.37;1.87;;;7.40;99.90;;;;;;5033835;28;20021;-51
2024/01/04 06:01:55;;;;;;;4.00;1.97;;;7.40;99.90;;;;;;5034070;28;20537;-54
2024/01/04 06:04:20;;;;;;;4.83;1.90;;;7.50;99.90;;;;;;5034081;28;20034;-53
2024/01/04 06:06:49;;;;;;;4.33;2.07;;;7.50;99.90;;;;;;5034226;28;20029;-54
2024/01/04 06:09:20;;;;;;;7.10;3.17;;;7.40;99.90;;;;;;5033784;28;20040;-55
2024/01/04 06:11:46;;;;;;;8.40;2.60;;;7.40;99.90;;;;;;5033935;28;20505;-52
2024/01/04 06:14:12;;;;;;;7.43;2.93;;;7.50;99.90;;;;;;5033624;28;20070;-54
2024/01/04 06:16:38;;;;;;;9.57;3.77;;;7.50;99.90;;;;;;5033919;28;20027;-51
2024/01/04 06:19:03;;;;;;;9.23;3.83;;;7.60;99.90;;;;;;5033430;28;20505;-54
2024/01/04 06:21:29;;;;;;;11.37;4.10;;;7.70;99.90;;;;;;5033849;28;20029;-54
2024/01/04 06:23:55;;;;;;;10.50;4.50;;;7.90;99.90;;;;;;5033718;28;20030;-50
2024/01/04 06:26:21;;;;;;;13.63;5.23;;;7.90;99.90;;;;;;5033672;28;20037;-52
2024/01/04 06:28:47;;;;;;;10.60;4.90;;;8.00;99.90;;;;;;5033339;28;20034;-55
2024/01/04 06:31:13;;;;;;;10.07;4.93;;;8.10;99.90;;;;;;5015687;28;20044;-52
2024/01/04 06:33:39;;;;;;;13.50;5.60;;;8.10;99.90;;;;;;5033332;28;20036;-54
2024/01/04 06:36:07;;;;;;;9.70;4.60;;;8.20;99.90;;;;;;5033506;28;20034;-52
2024/01/04 06:38:35;;;;;;;10.50;4.75;;;8.20;99.90;;;;;;5033237;28;20039;-51
2024/01/04 06:41:03;;;;;;;9.80;4.90;;;8.20;99.90;;;;;;5033381;28;20029;-54
2024/01/04 06:43:30;;;;;;;9.87;5.23;;;8.20;99.90;;;;;;5033156;28;20379;-53
2024/01/04 06:45:58;;;;;;;9.03;4.77;;;8.20;99.90;;;;;;5033303;28;20025;-53
2024/01/04 06:48:24;;;;;;;6.53;4.40;;;8.20;99.90;;;;;;5033009;28;20048;-55
2024/01/04 06:50:50;;;;;;;7.83;4.47;;;8.20;99.90;;;;;;5032802;28;20108;-55
2024/01/04 06:53:16;;;;;;;7.40;4.07;;;8.20;99.90;;;;;;5032994;28;20462;-54
2024/01/04 06:55:43;;;;;;;7.10;3.83;;;8.20;99.90;;;;;;5033169;28;20040;-54
2024/01/04 06:58:09;;;;;;;6.43;3.60;;;8.20;99.90;;;;;;5032715;28;20475;-52
2024/01/04 07:00:35;;;;;;;6.13;3.20;;;8.20;99.90;;;;;;5033026;28;20037;-52
2024/01/04 07:03:02;;;;;;;11.17;3.30;;;8.10;99.90;;;;;;5032878;28;20033;-53
2024/01/04 07:05:28;;;;;;;6.70;3.03;;;8.10;99.90;;;;;;5032995;28;20493;-52
2024/01/04 07:07:53;;;;;;;7.40;2.90;;;8.20;99.90;;;;;;5032896;28;20025;-51
2024/01/04 07:10:19;;;;;;;5.03;2.33;;;8.10;99.90;;;;;;5032625;28;20033;-53
2024/01/04 07:12:45;;;;;;;5.23;2.33;;;8.10;99.90;;;;;;5032807;28;20048;-54
2024/01/04 07:15:11;;;;;;;4.73;2.00;;;8.00;99.90;;;;;;5032879;28;20433;-53
2024/01/04 07:17:37;;;;;;;5.37;2.40;;;8.00;99.90;;;;;;5032599;28;20033;-51
2024/01/04 07:20:03;;;;;;;3.73;2.20;;;8.00;99.90;;;;;;5032505;28;20040;-51
2024/01/04 07:22:29;;;;;;;4.40;2.07;;;7.90;99.90;;;;;;5032746;28;20060;-55
2024/01/04 07:24:56;;;;;;;6.17;2.03;;;8.00;99.90;;;;;;5032724;28;20430;-53
2024/01/04 07:27:21;;;;;;;4.73;2.17;;;7.90;99.90;;;;;;5032496;28;20040;-55
2024/01/04 07:29:47;;;;;;;5.03;2.20;;;7.90;99.90;;;;;;5014604;28;20045;-52
2024/01/04 07:32:16;;;;;;;7.53;2.60;;;7.90;99.90;;;;;;5032338;28;20025;-54
2024/01/04 07:34:42;;;;;;;4.20;1.83;;;7.90;99.90;;;;;;5032143;28;20037;-54
2024/01/04 07:37:07;;;;;;;6.30;2.03;;;7.90;99.90;;;;;;5032267;28;20021;-53
2024/01/04 07:39:33;;;;;;;5.43;2.10;;;7.90;99.90;;;;;;5031885;28;20458;-55
2024/01/04 07:41:59;;;;;;;6.47;1.97;;;8.00;99.90;;;;;;5014522;28;20041;-54
2024/01/04 07:44:25;;;;;;;9.13;2.50;;;7.90;99.90;;;;;;5014481;28;20395;-51
2024/01/04 07:46:51;;;;;;;9.13;1.97;;;7.90;99.90;;;;;;5032202;28;20036;-55
2024/01/04 07:49:16;;;;;;;5.63;1.97;;;8.00;99.90;;;;;;5031929;28;20029;-54
2024/01/04 07:51:42;;;;;;;6.67;1.70;;;8.00;99.90;;;;;;5032018;28;20041;-55
2024/01/04 07:54:08;;;;;;;3.80;1.97;;;8.00;99.90;;;;;;5031901;28;20405;-55
2024/01/04 07:56:33;;;;;;;5.97;2.30;;;8.00;99.90;;;;;;5031997;28;20032;-54
2024/01/04 07:58:59;;;;;;;6.90;1.70;;;8.00;99.90;;;;;;5031804;28;20029;-53
2024/01/04 08:01:24;;;;;;;3.03;1.60;;;7.90;99.90;;;;;;5031851;28;20025;-52
2024/01/04 08:03:50;;;;;;;5.30;2.20;;;7.90;99.90;;;;;;5014208;28;20448;-55
2024/01/04 08:06:16;;;;;;;4.30;1.43;;;8.00;99.90;;;;;;5031909;28;20123;-55
2024/01/04 08:08:42;;;;;;;6.13;1.90;;;8.00;99.90;;;;;;5031160;28;20029;-53
2024/01/04 08:11:08;;;;;;;3.50;1.77;;;8.00;99.90;;;;;;5031812;28;20029;-53
2024/01/04 08:13:34;;;;;;;4.77;2.00;;;7.80;99.90;;;;;;5031700;28;20095;-51
2024/01/04 08:16:01;;;;;;;6.23;2.13;;;7.80;99.90;;;;;;5032050;28;20025;-50
2024/01/04 08:18:27;;;;;;;3.43;1.60;;;7.90;99.90;;;;;;5031449;28;20030;-53
2024/01/04 08:20:53;;;;;;;3.20;1.70;;;7.90;99.90;;;;;;5031554;28;20371;-54
2024/01/04 08:23:18;;;;;;;3.33;1.30;;;7.90;99.90;;;;;;5031547;28;20026;-54
2024/01/04 08:25:44;;;;;;;3.53;1.40;;;8.00;99.90;;;;;;5031675;28;20079;-54
2024/01/04 08:28:12;;;;;;;6.20;1.70;;;8.00;99.90;;;;;;5031677;28;20036;-55
2024/01/04 08:30:38;;;;;;;4.10;1.67;;;8.00;99.90;;;;;;5031534;28;20066;-55
2024/01/04 08:33:03;;;;;;;4.53;1.50;;;7.90;99.90;;;;;;5031431;28;20429;-54
2024/01/04 08:35:29;;;;;;;5.47;1.83;;;8.00;99.90;;;;;;5031650;28;20025;-50
2024/01/04 08:37:55;;;;;;;3.43;1.50;;;8.00;99.90;;;;;;5031469;28;20489;-52
2024/01/04 08:40:20;;;;;;;3.13;1.63;;;8.00;99.90;;;;;;5031359;28;20024;-52
2024/01/04 08:42:46;;;;;;;5.33;1.63;;;7.90;99.90;;;;;;5031413;28;20057;-54
2024/01/04 08:45:12;;;;;;;4.73;1.97;;;7.80;99.90;;;;;;5013742;28;20133;-53
2024/01/04 08:47:38;;;;;;;6.33;2.23;;;7.90;99.90;;;;;;5031563;28;20028;-50
2024/01/04 08:50:04;;;;;;;8.03;2.23;;;7.90;99.90;;;;;;5031232;28;20018;-53
2024/01/04 08:52:30;;;;;;;3.83;2.00;;;7.90;99.90;;;;;;5031264;28;20036;-53
2024/01/04 08:54:56;;;;;;;4.43;2.10;;;7.90;99.90;;;;;;5031342;28;20470;-55
2024/01/04 08:57:22;;;;;;;6.20;2.40;;;7.90;99.90;;;;;;5031389;28;20079;-55
2024/01/04 08:59:48;;;;;;;7.03;2.20;;;7.90;99.90;;;;;;5013409;28;20032;-51
2024/01/04 09:02:14;;;;;;;7.23;2.50;;;8.00;99.90;;;;;;5013582;28;20474;-52
2024/01/04 09:04:39;;;;;;;6.37;2.47;;;7.90;99.90;;;;;;5031341;28;20036;-53
2024/01/04 09:07:07;;;;;;;5.70;2.73;;;7.80;99.90;;;;;;5031281;28;20033;-52
2024/01/04 09:09:32;;;;;;;8.67;3.13;;;7.80;99.90;;;;;;5031067;28;20041;-55
2024/01/04 09:11:58;;;;;;;7.33;3.17;;;7.80;99.90;;;;;;5031278;28;20040;-54
2024/01/04 09:14:23;;;;;;;5.77;3.13;;;7.90;99.90;;;;;;5031132;28;20030;-52
2024/01/04 09:16:49;;;;;;;7.03;2.93;;;7.90;99.90;;;;;;5031304;28;20029;-53
2024/01/04 09:19:19;;;;;;;5.80;3.03;;;7.90;99.90;;;;;;5030948;28;20036;-52
2024/01/04 09:21:47;;;;;;;7.53;3.43;;;8.00;99.90;;;;;;5015224;28;20466;-54
2024/01/04 09:24:14;;;;;;;6.63;3.50;;;8.00;99.90;;;;;;5034675;28;20505;-51
2024/01/04 09:26:43;;;;;;;9.07;3.30;;;8.10;99.90;;;;;;5034744;28;20489;-54
2024/01/04 09:29:09;;;;;;;7.50;3.63;;;8.10;99.90;;;;;;5034465;28;20037;-53
2024/01/04 09:31:35;;;;;;;8.07;3.13;;;8.20;99.90;;;;;;5034825;28;20419;-50
2024/01/04 09:34:01;;;;;;;7.53;3.87;;;8.20;99.90;;;;;;5034499;28;20124;-52
2024/01/04 09:36:27;;;;;;;9.03;3.43;;;8.20;99.90;;;;;;5034587;28;20026;-55
2024/01/04 09:38:52;;;;;;;7.70;3.50;;;8.10;99.90;;;;;;5034379;28;20052;-52
2024/01/04 09:41:29;;;;;;;8.43;3.27;;;8.20;99.90;;;;;;5034411;28;20072;-55
2024/01/04 09:44:01;;;;;;;8.03;3.30;;;8.20;99.90;;;;;;5034376;28;20026;-51
2024/01/04 09:46:37;;;;;;;7.53;2.50;;;8.20;99.90;;;;;;5034362;28;20493;-54
2024/01/04 09:49:03;;;;;;;5.40;2.50;;;8.30;99.90;;;;;;5034159;28;20401;-52
2024/01/04 09:51:34;;;;;;;5.67;2.90;;;8.40;99.90;;;;;;5034186;28;20037;-52
2024/01/04 09:54:01;;;;;;;6.13;2.43;;;8.30;99.90;;;;;;5034163;28;20470;-54
2024/01/04 09:56:28;;;;;;;6.60;2.27;;;8.30;99.90;;;;;;5034271;28;20120;-54
2024/01/04 09:58:53;;;;;;;5.03;2.50;;;8.30;99.90;;;;;;5034511;28;20048;-54
2024/01/04 10:01:23;;;;;;;6.57;2.40;;;8.20;99.90;;;;;;5034075;28;20025;-54
2024/01/04 10:03:49;;;;;;;6.57;2.83;;;8.20;99.90;;;;;;5034147;28;20025;-53
2024/01/04 10:06:27;;;;;;;3.83;2.20;;;8.20;99.90;;;;;;5034118;28;20410;-52
2024/01/04 10:08:59;;;;;;;6.72;2.30;;;8.20;99.90;;;;;;5033885;28;20121;-54
2024/01/04 10:11:33;;;;;;;6.67;2.43;;;8.20;99.90;;;;;;5034069;28;20036;-56
2024/01/04 10:13:59;;;;;;;5.67;2.50;;;8.20;99.90;;;;;;5033923;28;20083;-53
2024/01/04 10:16:27;;;;;;;4.23;2.40;;;8.20;99.90;;;;;;5033812;28;20025;-54
2024/01/04 10:18:56;;;;;;;5.03;2.50;;;8.20;99.90;;;;;;5033443;28;20168;-54
2024/01/04 10:21:22;;;;;;;6.57;2.00;;;8.30;99.90;;;;;;5033715;28;20037;-49
2024/01/04 10:24:00;;;;;;;4.17;2.10;;;8.40;99.90;;;;;;5033530;28;20386;-51
2024/01/04 10:26:27;;;;;;;7.40;2.10;;;8.50;99.90;;;;;;5033628;28;20044;-52
2024/01/04 10:28:59;;;;;;;8.07;4.17;;;8.50;99.90;;;;;;5033296;28;20037;-55
2024/01/04 10:31:25;;;;;;;4.50;2.30;;;8.50;99.90;;;;;;5033302;28;20375;-53
2024/01/04 10:34:00;;;;;;;6.67;2.20;;;8.50;99.90;;;;;;5033322;28;20032;-54
2024/01/04 10:36:29;;;;;;;6.63;2.10;;;8.50;99.90;;;;;;5033413;28;20022;-56
2024/01/04 10:38:59;;;;;;;4.85;1.90;;;8.60;99.90;;;;;;5033032;28;20112;-55
2024/01/04 10:41:28;;;;;;;5.63;1.90;;;8.80;99.90;;;;;;5033238;28;20017;-55
2024/01/04 10:44:07;;;;;;;4.57;1.65;;;8.80;99.90;;;;;;5033239;28;20501;-53
2024/01/04 10:46:36;;;;;;;3.83;2.10;;;9.00;99.90;;;;;;5033298;28;20053;-52
2024/01/04 10:49:03;;;;;;;4.40;1.58;;;9.10;99.90;;;;;;5032867;28;20037;-51
2024/01/04 10:51:32;;;;;;;4.37;1.43;;;9.10;99.90;;;;;;5033018;28;20037;-54
2024/01/04 10:54:02;;;;;;;2.63;1.38;;;9.20;99.90;;;;;;5032984;28;20029;-52
2024/01/04 10:56:32;;;;;;;3.47;1.70;;;9.20;99.90;;;;;;5033238;28;20370;-53
2024/01/04 10:58:59;;;;;;;3.00;1.47;;;9.40;99.90;;;;;;5032843;28;20026;-55
2024/01/04 11:01:25;;;;;;;2.97;1.63;;;9.40;99.90;;;;;;5032869;28;20120;-54
2024/01/04 11:03:54;;;;;;;2.93;1.40;;;9.40;99.90;;;;;;5028365;28;20518;-54
2024/01/04 11:06:23;;;;;;;2.60;1.33;;;9.40;99.90;;;;;;5033082;28;20041;-55
2024/01/04 11:08:49;;;;;;;5.10;1.73;;;9.40;99.90;;;;;;5032567;28;20112;-53
2024/01/04 11:11:16;;;;;;;3.97;1.40;;;9.30;99.90;;;;;;5032902;28;20071;-54
2024/01/04 11:13:42;;;;;;;1.80;1.10;;;9.30;99.90;;;;;;5032607;28;20068;-53
2024/01/04 11:16:25;;;;;;;4.37;1.20;;;9.10;99.90;;;;;;5032811;28;20064;-54
2024/01/04 11:19:12;;;;;;;4.40;1.47;;;9.10;99.90;;;;;;5032344;28;20121;-55
2024/01/04 11:21:46;;;;;;;3.23;1.47;;;9.00;99.90;;;;;;5032518;28;20116;-54
2024/01/04 11:24:33;;;;;;;3.77;1.27;;;9.00;99.90;;;;;;5032861;28;20379;-54
2024/01/04 11:27:00;;;;;;;2.27;1.30;;;9.00;99.90;;;;;;5032531;28;20450;-52
2024/01/04 11:29:27;;;;;;;2.43;1.27;;;8.90;99.90;;;;;;5032227;28;20025;-54
2024/01/04 11:31:57;;;;;;;2.30;1.30;;;9.00;99.90;;;;;;5032475;28;20043;-53
2024/01/04 11:34:25;;;;;;;3.83;1.53;;;9.00;99.90;;;;;;5032337;28;20037;-54
2024/01/04 11:36:54;;;;;;;3.23;1.60;;;8.90;99.90;;;;;;5032437;28;20084;-49
2024/01/04 11:39:28;;;;;;;2.00;1.10;;;8.80;99.90;;;;;;5031394;28;20112;-54
2024/01/04 11:41:54;;;;;;;2.77;0.87;;;8.80;99.90;;;;;;5032767;28;20080;-52
2024/01/04 11:44:20;;;;;;;1.97;1.10;;;8.70;99.90;;;;;;5031630;28;20033;-55
2024/01/04 11:46:46;;;;;;;1.93;1.20;;;8.70;99.90;;;;;;5032371;28;20061;-55
2024/01/04 11:49:15;;;;;;;2.37;1.00;;;8.70;99.90;;;;;;5031883;28;20067;-52
2024/01/04 11:51:46;;;;;;;1.80;1.00;;;8.70;99.90;;;;;;5031911;28;20476;-50
2024/01/04 11:54:14;;;;;;;3.57;1.40;;;8.80;99.90;;;;;;5032138;28;20041;-50
2024/01/04 11:56:40;;;;;;;2.50;1.00;;;8.90;99.90;;;;;;5031957;28;20439;-55
2024/01/04 11:59:11;;;;;;;3.63;1.40;;;8.90;99.90;;;;;;5031683;28;20112;-52
2024/01/04 12:01:38;;;;;;;3.67;1.80;;;8.90;99.90;;;;;;5031869;28;20022;-53
2024/01/04 12:04:12;;;;;;;4.17;1.60;;;9.00;99.90;;;;;;5031832;28;20040;-54
2024/01/04 12:06:39;;;;;;;2.30;1.07;;;9.00;99.90;;;;;;5031965;28;20171;-49
2024/01/04 12:09:09;;;;;;;3.53;1.50;;;8.90;99.90;;;;;;5031452;28;20057;-54
2024/01/04 12:11:36;;;;;;;1.73;1.03;;;8.90;99.90;;;;;;5031496;28;20331;-53
2024/01/04 12:14:03;;;;;;;3.83;1.50;;;9.00;99.90;;;;;;5031796;28;20116;-51
2024/01/04 12:16:30;;;;;;;3.47;1.40;;;9.00;99.90;;;;;;5031831;28;20449;-49
2024/01/04 12:18:57;;;;;;;2.70;1.40;;;9.00;99.90;;;;;;5031374;28;20108;-53
2024/01/04 12:21:24;;;;;;;2.77;1.20;;;9.00;99.90;;;;;;5031949;28;20406;-50
2024/01/04 12:23:51;;;;;;;2.67;1.20;;;9.00;99.90;;;;;;5031924;28;20458;-50
2024/01/04 12:26:18;;;;;;;3.80;1.80;;;9.10;99.90;;;;;;5031741;28;20029;-51
2024/01/04 12:28:44;;;;;;;4.37;2.10;;;9.10;99.90;;;;;;5031539;28;20481;-50
2024/01/04 12:31:11;;;;;;;2.73;1.53;;;9.10;99.90;;;;;;5031604;28;20478;-49
2024/01/04 12:33:39;;;;;;;5.57;1.40;;;9.00;99.90;;;;;;5031297;28;20041;-55
2024/01/04 12:36:06;;;;;;;2.30;1.13;;;9.00;99.90;;;;;;5031623;28;20063;-50
2024/01/04 12:38:31;;;;;;;2.53;1.27;;;9.00;99.90;;;;;;5031478;28;20134;-51
2024/01/04 12:40:57;;;;;;;2.80;1.10;;;9.00;99.90;;;;;;5031559;28;20104;-53
2024/01/04 12:43:24;;;;;;;4.33;1.30;;;8.90;99.90;;;;;;5031528;28;20033;-55
2024/01/04 12:46:08;;;;;;;2.70;1.43;;;8.90;99.90;;;;;;5031563;28;20068;-54
2024/01/04 12:48:34;;;;;;;6.20;1.40;;;8.90;99.90;;;;;;5031410;28;20498;-55
2024/01/04 12:51:08;;;;;;;3.60;1.60;;;9.00;99.90;;;;;;5031805;28;20240;-53
2024/01/04 12:53:34;;;;;;;3.13;1.60;;;9.00;99.90;;;;;;5031721;28;20068;-54
2024/01/04 12:56:00;;;;;;;3.30;1.50;;;8.90;99.90;;;;;;5034441;28;20045;-55